createdAt,value
2022-08-05T00:00:51.823Z,53.14
2022-08-05T00:01:53.684Z,53.93
2022-08-05T00:02:55.673Z,54.39
2022-08-05T00:03:57.589Z,53.06
2022-08-05T00:04:59.279Z,53.13
2022-08-05T00:06:05.496Z,52.96
2022-08-05T00:07:59.425Z,52.79
2022-08-05T00:08:44.919Z,53.02
2022-08-05T00:09:49.076Z,53.07
2022-08-05T00:10:50.589Z,52.79
2022-08-05T00:11:56.021Z,52.94
2022-08-05T00:13:01.519Z,53.84
2022-08-05T00:14:12.568Z,53.58
2022-08-05T00:15:54.946Z,52.35
2022-08-05T00:16:52.347Z,54.07
2022-08-05T00:17:54.741Z,53.91
2022-08-05T00:18:56.814Z,53.29
2022-08-05T00:20:02.768Z,53.70
2022-08-05T00:21:06.449Z,53.22
2022-08-05T00:22:11.057Z,52.21
2022-08-05T00:23:13.363Z,52.56
2022-08-05T00:24:18.958Z,53.41
2022-08-05T00:25:25.991Z,54.69
2022-08-05T00:26:50.634Z,54.31
2022-08-05T00:27:53.610Z,54.09
2022-08-05T00:28:57.035Z,54.22
2022-08-05T00:29:59.169Z,53.51
2022-08-05T00:31:05.562Z,53.69
2022-08-05T00:32:15.303Z,54.47
2022-08-05T00:34:54.485Z,56.13
2022-08-05T00:34:56.994Z,56.62
2022-08-05T00:36:16.473Z,55.99
2022-08-05T00:37:24.142Z,56.71
2022-08-05T00:38:28.880Z,56.15
2022-08-05T00:39:41.393Z,53.74
2022-08-05T00:40:53.281Z,53.92
2022-08-05T00:41:55.866Z,54.42
2022-08-05T00:42:59.806Z,55.15
2022-08-05T00:44:01.797Z,55.44
2022-08-05T00:45:05.530Z,56.01
2022-08-05T00:46:12.522Z,56.29
2022-08-05T00:47:16.378Z,56.90
2022-08-05T00:48:27.468Z,57.72
2022-08-05T00:49:32.622Z,58.33
2022-08-05T00:50:34.793Z,58.19
2022-08-05T00:51:51.774Z,57.26
2022-08-05T00:52:55.013Z,57.17
2022-08-05T00:54:02.422Z,57.73
2022-08-05T00:55:05.160Z,58.65
2022-08-05T00:56:07.729Z,57.27
2022-08-05T00:57:09.725Z,57.09
2022-08-05T00:58:12.955Z,57.11
2022-08-05T00:59:14.862Z,58.55
2022-08-05T01:00:16.951Z,58.68
2022-08-05T01:01:24.707Z,59.35
2022-08-05T01:02:40.395Z,59.88
2022-08-05T01:03:43.549Z,58.44
2022-08-05T01:04:51.636Z,58.07
2022-08-05T01:05:54.691Z,58.38
2022-08-05T01:06:56.660Z,58.26
2022-08-05T01:08:41.054Z,58.43
2022-08-05T01:09:20.409Z,58.57
2022-08-05T01:10:28.701Z,60.02
2022-08-05T01:11:37.364Z,60.38
2022-08-05T01:13:03.243Z,58.06
2022-08-05T01:14:09.030Z,58.98
2022-08-05T01:15:35.304Z,59.40
2022-08-05T01:16:47.338Z,58.93
2022-08-05T01:17:58.103Z,58.44
2022-08-05T01:19:14.240Z,58.82
2022-08-05T01:20:18.583Z,58.74
2022-08-05T01:21:43.137Z,58.70
2022-08-05T01:22:58.177Z,60.22
2022-08-05T01:24:22.098Z,59.21
2022-08-05T01:25:53.444Z,59.09
2022-08-05T01:27:17.932Z,59.80
2022-08-05T01:28:39.431Z,59.60
2022-08-05T01:29:46.549Z,60.96
2022-08-05T01:31:04.574Z,59.95
2022-08-05T01:32:12.332Z,60.22
2022-08-05T01:33:15.919Z,62.06
2022-08-05T01:34:48.597Z,62.81
2022-08-05T01:35:57.639Z,62.02
2022-08-05T01:37:07.831Z,61.24
2022-08-05T01:38:24.699Z,62.24
2022-08-05T01:39:46.251Z,62.51
2022-08-05T01:40:50.395Z,62.13
2022-08-05T01:41:55.886Z,61.10
2022-08-05T01:43:00.683Z,62.61
2022-08-05T01:44:09.960Z,63.14
2022-08-05T01:45:16.448Z,62.77
2022-08-05T01:46:39.169Z,61.27
2022-08-05T01:47:44.379Z,62.31
2022-08-05T01:48:49.581Z,61.13
2022-08-05T01:50:01.475Z,62.20
2022-08-05T01:51:12.397Z,62.56
2022-08-05T01:52:17.952Z,62.26
2022-08-05T01:53:55.227Z,63.41
2022-08-05T01:54:48.986Z,62.54
2022-08-05T01:55:59.789Z,62.25
2022-08-05T01:58:10.896Z,62.04
2022-08-05T01:58:45.183Z,62.11
2022-08-05T01:59:49.235Z,61.94
2022-08-05T02:00:52.182Z,61.93
2022-08-05T02:01:56.245Z,62.69
2022-08-05T02:03:06.765Z,64.18
2022-08-05T02:04:29.989Z,63.47
2022-08-05T02:05:35.972Z,64.04
2022-08-05T02:06:39.419Z,62.96
2022-08-05T02:07:56.266Z,62.82
2022-08-05T02:09:02.528Z,63.15
2022-08-05T02:10:05.563Z,63.88
2022-08-05T02:11:13.653Z,63.61
2022-08-05T02:12:27.859Z,63.37
2022-08-05T02:13:55.325Z,63.97
2022-08-05T02:15:06.875Z,64.16
2022-08-05T02:16:52.189Z,63.37
2022-08-05T02:18:33.037Z,62.88
2022-08-05T02:19:27.985Z,62.93
2022-08-05T02:20:39.134Z,62.89
2022-08-05T02:21:49.245Z,63.20
2022-08-05T02:22:58.416Z,64.27
2022-08-05T02:24:06.644Z,64.29
2022-08-05T02:25:18.340Z,64.01
2022-08-05T02:26:26.438Z,64.12
2022-08-05T02:27:58.978Z,63.52
2022-08-05T02:28:54.661Z,63.49
2022-08-05T02:30:00.965Z,63.82
2022-08-05T02:31:08.256Z,64.44
2022-08-05T02:32:24.184Z,64.12
2022-08-05T02:33:40.723Z,65.28
2022-08-05T02:34:43.783Z,64.63
2022-08-05T02:36:01.272Z,66.02
2022-08-05T02:37:07.775Z,65.40
2022-08-05T02:38:10.727Z,66.08
2022-08-05T02:39:18.090Z,64.19
2022-08-05T02:40:24.438Z,64.76
2022-08-05T02:41:28.793Z,65.23
2022-08-05T02:42:39.332Z,65.13
2022-08-05T02:44:02.359Z,65.65
2022-08-05T02:45:05.256Z,65.49
2022-08-05T02:46:10.059Z,65.60
2022-08-05T02:47:18.684Z,66.72
2022-08-05T02:48:28.964Z,66.51
2022-08-05T02:49:37.064Z,65.98
2022-08-05T02:50:46.592Z,66.37
2022-08-05T02:52:02.998Z,66.54
2022-08-05T02:53:06.657Z,66.03
2022-08-05T02:54:36.465Z,66.03
2022-08-05T02:55:52.002Z,65.80
2022-08-05T02:56:57.537Z,65.60
2022-08-05T02:58:10.619Z,68.12
2022-08-05T02:59:17.238Z,65.71
2022-08-05T03:00:20.309Z,65.62
2022-08-05T03:01:25.018Z,65.64
2022-08-05T03:02:31.549Z,65.62
2022-08-05T03:04:03.252Z,65.62
2022-08-05T03:04:58.090Z,64.94
2022-08-05T03:06:53.761Z,65.90
2022-08-05T03:07:40.685Z,64.90
2022-08-05T03:08:44.961Z,65.72
2022-08-05T03:09:51.628Z,65.27
2022-08-05T03:11:50.067Z,64.84
2022-08-05T03:12:44.650Z,65.34
2022-08-05T03:13:51.499Z,64.45
2022-08-05T03:15:06.876Z,64.29
2022-08-05T03:16:09.735Z,64.81
2022-08-05T03:17:17.432Z,64.69
2022-08-05T03:18:30.127Z,65.55
2022-08-05T03:19:34.661Z,64.27
2022-08-05T03:20:38.599Z,64.84
2022-08-05T03:21:50.214Z,64.56
2022-08-05T03:22:57.146Z,64.59
2022-08-05T03:23:59.852Z,64.69
2022-08-05T03:25:31.946Z,65.40
2022-08-05T03:26:32.075Z,66.28
2022-08-05T03:27:57.889Z,66.30
2022-08-05T03:28:56.257Z,66.04
2022-08-05T03:30:07.644Z,66.43
2022-08-05T03:31:10.721Z,66.45
2022-08-05T03:32:20.797Z,65.86
2022-08-05T03:33:51.116Z,65.48
2022-08-05T03:34:54.604Z,66.35
2022-08-05T03:35:58.148Z,66.31
2022-08-05T03:37:00.812Z,65.07
2022-08-05T03:38:03.707Z,64.28
2022-08-05T03:39:20.285Z,65.21
2022-08-05T03:40:32.223Z,65.36
2022-08-05T03:41:45.189Z,65.81
2022-08-05T03:42:52.088Z,66.05
2022-08-05T03:44:09.024Z,65.86
2022-08-05T03:45:22.536Z,67.46
2022-08-05T03:46:26.665Z,66.73
2022-08-05T03:47:35.580Z,67.62
2022-08-05T03:48:42.998Z,66.49
2022-08-05T03:49:51.342Z,67.82
2022-08-05T03:52:48.930Z,66.87
2022-08-05T03:55:34.546Z,68.33
2022-08-05T03:55:50.833Z,66.77
2022-08-05T03:56:10.118Z,67.53
2022-08-05T03:57:16.247Z,68.54
2022-08-05T03:58:28.952Z,68.31
2022-08-05T04:00:02.994Z,68.29
2022-08-05T04:01:08.069Z,68.43
2022-08-05T04:02:17.580Z,69.05
2022-08-05T04:03:38.941Z,68.79
2022-08-05T04:04:41.588Z,68.78
2022-08-05T04:05:47.222Z,68.52
2022-08-05T04:06:51.111Z,68.10
2022-08-05T04:07:58.610Z,68.17
2022-08-05T04:09:02.473Z,67.98
2022-08-05T04:10:06.388Z,68.66
2022-08-05T04:11:09.976Z,67.41
2022-08-05T04:12:24.699Z,67.16
2022-08-05T04:13:50.354Z,66.91
2022-08-05T04:14:50.353Z,66.56
2022-08-05T04:16:03.307Z,67.21
2022-08-05T04:17:09.317Z,68.41
2022-08-05T04:18:20.590Z,68.93
2022-08-05T04:19:28.787Z,69.05
2022-08-05T04:20:30.382Z,69.97
2022-08-05T04:22:08.235Z,69.47
2022-08-05T04:22:54.993Z,69.98
2022-08-05T04:24:06.568Z,71.00
2022-08-05T04:25:10.960Z,70.88
2022-08-05T04:26:13.889Z,71.03
2022-08-05T04:27:15.893Z,71.99
2022-08-05T04:28:21.246Z,70.79
2022-08-05T04:29:32.317Z,71.30
2022-08-05T04:30:34.369Z,70.99
2022-08-05T04:31:38.770Z,71.23
2022-08-05T04:32:41.214Z,69.82
2022-08-05T04:33:54.395Z,68.62
2022-08-05T04:35:06.012Z,69.19
2022-08-05T04:36:16.050Z,71.11
2022-08-05T04:38:01.503Z,70.75
2022-08-05T04:38:55.163Z,68.96
2022-08-05T04:39:59.558Z,69.49
2022-08-05T04:41:01.117Z,70.04
2022-08-05T04:42:05.653Z,69.72
2022-08-05T04:43:07.555Z,69.61
2022-08-05T04:44:21.395Z,68.19
2022-08-05T04:45:48.768Z,68.51
2022-08-05T04:46:50.838Z,69.35
2022-08-05T04:47:54.355Z,70.21
2022-08-05T04:48:59.174Z,69.95
2022-08-05T04:50:11.340Z,69.65
2022-08-05T04:51:13.355Z,69.94
2022-08-05T04:52:15.654Z,69.54
2022-08-05T04:53:18.890Z,69.43
2022-08-05T04:54:21.796Z,70.47
2022-08-05T04:56:05.023Z,69.75
2022-08-05T04:56:45.724Z,68.98
2022-08-05T04:57:51.585Z,67.80
2022-08-05T04:58:56.482Z,67.90
2022-08-05T04:59:58.804Z,69.98
2022-08-05T05:01:00.991Z,68.56
2022-08-05T05:02:07.331Z,67.47
2022-08-05T05:03:24.298Z,67.12
2022-08-05T05:04:26.077Z,66.95
2022-08-05T05:05:29.456Z,67.58
2022-08-05T05:06:40.240Z,67.54
2022-08-05T05:07:56.027Z,67.37
2022-08-05T05:08:58.386Z,67.96
2022-08-05T05:10:05.430Z,68.40
2022-08-05T05:11:08.010Z,69.38
2022-08-05T05:12:09.746Z,68.09
2022-08-05T05:13:15.754Z,68.51
2022-08-05T05:14:17.654Z,67.96
2022-08-05T05:15:56.760Z,66.67
2022-08-05T05:16:51.416Z,66.24
2022-08-05T05:17:57.844Z,65.86
2022-08-05T05:19:18.699Z,65.11
2022-08-05T05:20:21.305Z,64.53
2022-08-05T05:21:29.713Z,63.31
2022-08-05T05:22:35.309Z,64.25
2022-08-05T05:24:02.731Z,63.83
2022-08-05T05:25:16.575Z,63.29
2022-08-05T05:26:18.847Z,63.24
2022-08-05T05:27:20.402Z,64.69
2022-08-05T05:28:22.934Z,65.26
2022-08-05T05:30:03.430Z,66.29
2022-08-05T05:30:49.777Z,72.83
2022-08-05T05:31:51.706Z,80.34
2022-08-05T05:32:54.527Z,80.42
2022-08-05T05:33:59.157Z,83.06
2022-08-05T05:35:03.264Z,79.67
2022-08-05T05:36:07.832Z,80.43
2022-08-05T05:37:15.192Z,86.37
2022-08-05T05:38:26.779Z,94.88
2022-08-05T05:39:34.512Z,97.61
2022-08-05T05:40:36.765Z,100.00
2022-08-05T05:41:40.504Z,100.00
2022-08-05T05:42:47.111Z,100.00
2022-08-05T05:43:58.226Z,100.00
2022-08-05T05:45:02.980Z,100.00
2022-08-05T05:46:05.279Z,100.00
2022-08-05T05:47:13.249Z,100.00
2022-08-05T05:48:27.549Z,100.00
2022-08-05T05:49:29.567Z,100.00
2022-08-05T05:50:31.283Z,100.00
2022-08-05T05:51:49.635Z,100.00
2022-08-05T05:52:52.362Z,100.00
2022-08-05T05:53:58.578Z,100.00
2022-08-05T05:55:02.164Z,100.00
2022-08-05T05:56:09.601Z,100.00
2022-08-05T05:57:13.867Z,100.00
2022-08-05T05:58:20.918Z,100.00
2022-08-05T05:59:32.969Z,100.00
2022-08-05T06:00:42.067Z,100.00
2022-08-05T06:01:57.395Z,100.00
2022-08-05T06:03:02.690Z,100.00
2022-08-05T06:04:04.715Z,100.00
2022-08-05T06:05:16.572Z,100.00
2022-08-05T06:06:18.752Z,100.00
2022-08-05T06:07:24.301Z,100.00
2022-08-05T06:08:44.399Z,100.00
2022-08-05T06:10:01.338Z,100.00
2022-08-05T06:11:05.254Z,100.00
2022-08-05T06:12:09.626Z,100.00
2022-08-05T06:13:13.716Z,100.00
2022-08-05T06:14:15.353Z,100.00
2022-08-05T06:15:23.777Z,100.00
2022-08-05T06:16:30.901Z,100.00
2022-08-05T06:17:52.659Z,100.00
2022-08-05T06:18:54.847Z,100.00
2022-08-05T06:19:59.555Z,100.00
2022-08-05T06:21:01.479Z,100.00
2022-08-05T06:22:04.638Z,100.00
2022-08-05T06:23:08.056Z,100.00
2022-08-05T06:24:11.881Z,100.00
2022-08-05T06:25:59.340Z,100.00
2022-08-05T06:26:36.041Z,100.00
2022-08-05T06:28:12.584Z,100.00
2022-08-05T06:28:59.528Z,100.00
2022-08-05T06:30:20.168Z,100.00
2022-08-05T06:31:23.075Z,100.00
2022-08-05T06:32:33.741Z,100.00
2022-08-05T06:34:07.116Z,100.00
2022-08-05T06:34:58.664Z,100.00
2022-08-05T06:36:07.297Z,100.00
2022-08-05T06:37:11.605Z,100.00
2022-08-05T06:38:14.010Z,100.00
2022-08-05T06:39:17.765Z,100.00
2022-08-05T06:40:27.829Z,100.00
2022-08-05T06:41:29.800Z,100.00
2022-08-05T06:42:36.890Z,100.00
2022-08-05T06:43:59.012Z,100.00
2022-08-05T06:45:05.607Z,100.00
2022-08-05T06:46:10.469Z,100.00
2022-08-05T06:48:11.318Z,100.00
2022-08-05T06:48:55.760Z,100.00
2022-08-05T06:50:01.056Z,100.00
2022-08-05T06:51:09.601Z,100.00
2022-08-05T06:52:37.277Z,100.00
2022-08-05T06:53:33.648Z,100.00
2022-08-05T06:54:41.035Z,100.00
2022-08-05T06:55:42.703Z,100.00
2022-08-05T06:56:54.967Z,100.00
2022-08-05T06:58:29.747Z,100.00
2022-08-05T06:59:38.556Z,100.00
2022-08-05T07:00:43.952Z,100.00
2022-08-05T07:01:46.407Z,100.00
2022-08-05T07:02:54.531Z,100.00
2022-08-05T07:03:56.200Z,100.00
2022-08-05T07:04:57.755Z,100.00
2022-08-05T07:06:05.411Z,100.00
2022-08-05T07:07:11.972Z,100.00
2022-08-05T07:08:16.793Z,100.00
2022-08-05T07:09:20.540Z,100.00
2022-08-05T07:10:32.308Z,100.00
2022-08-05T07:11:37.363Z,100.00
2022-08-05T07:13:00.059Z,100.00
2022-08-05T07:14:29.782Z,100.00
2022-08-05T07:16:01.911Z,97.49
2022-08-05T07:18:01.903Z,93.08
2022-08-05T07:18:30.148Z,88.30
2022-08-05T07:20:23.153Z,91.99
2022-08-05T07:20:54.241Z,82.50
2022-08-05T07:22:00.733Z,85.36
2022-08-05T07:23:02.931Z,83.38
2022-08-05T07:24:11.132Z,79.18
2022-08-05T07:25:54.345Z,77.67
2022-08-05T07:26:34.673Z,75.75
2022-08-05T07:27:56.627Z,74.69
2022-08-05T07:28:59.779Z,74.30
2022-08-05T07:30:25.372Z,69.03
2022-08-05T07:31:40.846Z,64.76
2022-08-05T07:32:44.588Z,59.23
2022-08-05T07:33:52.531Z,61.47
2022-08-05T07:34:58.016Z,63.22
2022-08-05T07:36:19.416Z,58.92
2022-08-05T07:37:22.018Z,55.68
2022-08-05T07:38:32.439Z,57.15
2022-08-05T07:40:26.543Z,56.15
2022-08-05T07:41:00.373Z,55.51
2022-08-05T07:42:13.861Z,55.50
2022-08-05T07:43:20.679Z,52.74
2022-08-05T07:44:22.742Z,52.76
2022-08-05T07:45:56.430Z,49.70
2022-08-05T07:46:48.625Z,47.50
2022-08-05T07:47:51.518Z,46.33
2022-08-05T07:49:04.012Z,46.99
2022-08-05T07:50:07.422Z,45.66
2022-08-05T07:51:23.712Z,44.11
2022-08-05T07:52:30.712Z,44.22
2022-08-05T07:53:36.965Z,43.24
2022-08-05T07:54:51.769Z,42.77
2022-08-05T07:56:15.726Z,41.02
2022-08-05T07:57:50.548Z,40.97
2022-08-05T07:58:57.242Z,41.16
2022-08-05T07:59:59.367Z,41.49
2022-08-05T08:01:01.451Z,40.02
2022-08-05T08:02:16.960Z,39.90
2022-08-05T08:03:19.447Z,40.87
2022-08-05T08:04:37.552Z,40.42
2022-08-05T08:05:47.296Z,39.98
2022-08-05T08:06:51.471Z,39.13
2022-08-05T08:07:58.943Z,37.57
2022-08-05T08:09:01.923Z,37.53
2022-08-05T08:10:04.750Z,38.48
2022-08-05T08:11:08.987Z,38.43
2022-08-05T08:12:35.584Z,37.51
2022-08-05T08:13:42.758Z,36.21
2022-08-05T08:14:51.177Z,37.76
2022-08-05T08:16:35.297Z,36.73
2022-08-05T08:17:16.262Z,35.09
2022-08-05T08:18:20.738Z,34.56
2022-08-05T08:20:23.382Z,35.15
2022-08-05T08:21:02.938Z,38.16
2022-08-05T08:22:07.356Z,36.04
2022-08-05T08:24:00.141Z,36.42
2022-08-05T08:24:51.157Z,35.58
2022-08-05T08:26:00.895Z,37.36
2022-08-05T08:27:06.968Z,37.90
2022-08-05T08:28:18.359Z,35.88
2022-08-05T08:29:29.339Z,34.94
2022-08-05T08:30:47.466Z,34.70
2022-08-05T08:31:52.148Z,35.52
2022-08-05T08:32:53.761Z,34.56
2022-08-05T08:33:55.337Z,34.83
2022-08-05T08:34:57.802Z,34.92
2022-08-05T08:36:29.470Z,33.48
2022-08-05T08:37:21.451Z,35.38
2022-08-05T08:38:36.023Z,34.73
2022-08-05T08:39:49.466Z,32.65
2022-08-05T08:40:51.883Z,33.43
2022-08-05T08:41:59.475Z,33.02
2022-08-05T08:45:20.047Z,32.24
2022-08-05T08:45:21.420Z,32.41
2022-08-05T08:45:54.092Z,32.21
2022-08-05T08:46:56.571Z,32.61
2022-08-05T08:48:12.528Z,32.65
2022-08-05T08:50:07.615Z,32.28
2022-08-05T08:51:03.599Z,32.71
2022-08-05T08:52:14.519Z,33.06
2022-08-05T08:53:17.087Z,34.11
2022-08-05T08:54:19.006Z,31.86
2022-08-05T08:56:01.889Z,30.86
2022-08-05T08:56:47.700Z,32.20
2022-08-05T08:57:58.226Z,32.25
2022-08-05T08:59:08.354Z,30.80
2022-08-05T09:00:19.382Z,30.38
2022-08-05T09:01:21.849Z,31.70
2022-08-05T09:02:26.628Z,32.48
2022-08-05T09:03:40.465Z,32.37
2022-08-05T09:05:16.042Z,31.38
2022-08-05T09:06:11.591Z,31.21
2022-08-05T09:07:19.713Z,30.05
2022-08-05T09:08:30.895Z,30.09
2022-08-05T09:09:35.642Z,30.06
2022-08-05T09:10:41.443Z,29.80
2022-08-05T09:11:51.449Z,28.38
2022-08-05T09:12:55.928Z,27.81
2022-08-05T09:14:09.417Z,29.30
2022-08-05T09:15:19.248Z,28.06
2022-08-05T09:16:22.145Z,28.28
2022-08-05T09:17:42.733Z,28.01
2022-08-05T09:18:52.237Z,29.02
2022-08-05T09:20:02.377Z,28.81
2022-08-05T09:21:11.791Z,27.41
2022-08-05T09:22:31.543Z,28.07
2022-08-05T09:23:37.333Z,29.52
2022-08-05T09:24:57.985Z,28.02
2022-08-05T09:26:15.835Z,27.96
2022-08-05T09:28:03.758Z,30.24
2022-08-05T09:29:04.479Z,29.83
2022-08-05T09:30:06.886Z,28.13
2022-08-05T09:31:23.307Z,29.75
2022-08-05T09:32:49.374Z,29.59
2022-08-05T09:33:56.686Z,29.95
2022-08-05T09:34:59.792Z,30.87
2022-08-05T09:36:07.855Z,29.75
2022-08-05T09:38:12.055Z,27.76
2022-08-05T09:39:02.382Z,27.96
2022-08-05T09:40:05.254Z,29.59
2022-08-05T09:41:12.194Z,28.19
2022-08-05T09:42:24.291Z,28.84
2022-08-05T09:43:41.172Z,28.07
2022-08-05T09:44:46.061Z,27.36
2022-08-05T09:46:06.439Z,27.95
2022-08-05T09:47:16.855Z,27.44
2022-08-05T09:48:33.734Z,26.42
2022-08-05T09:49:54.846Z,28.17
2022-08-05T09:51:02.768Z,27.73
2022-08-05T09:52:27.461Z,27.80
2022-08-05T09:53:53.160Z,28.74
2022-08-05T09:55:06.417Z,29.76
2022-08-05T09:56:28.824Z,27.29
2022-08-05T09:57:43.275Z,28.28
2022-08-05T09:58:56.580Z,28.43
2022-08-05T10:00:08.620Z,27.54
2022-08-05T10:01:15.652Z,28.63
2022-08-05T10:02:42.244Z,27.47
2022-08-05T10:04:00.084Z,27.29
2022-08-05T10:05:09.716Z,26.75
2022-08-05T10:06:14.854Z,28.07
2022-08-05T10:07:19.989Z,26.87
2022-08-05T10:08:38.203Z,27.14
2022-08-05T10:10:15.244Z,26.46
2022-08-05T10:11:16.933Z,26.36
2022-08-05T10:12:33.676Z,27.95
2022-08-05T10:13:45.515Z,27.31
2022-08-05T10:14:49.665Z,27.53
2022-08-05T10:15:58.268Z,29.09
2022-08-05T10:17:36.828Z,27.68
2022-08-05T10:18:36.471Z,27.53
2022-08-05T10:20:04.041Z,27.23
2022-08-05T10:21:11.717Z,29.21
2022-08-05T10:22:29.940Z,28.45
2022-08-05T10:23:59.799Z,28.28
2022-08-05T10:24:56.816Z,28.83
2022-08-05T10:26:00.481Z,30.09
2022-08-05T10:27:02.233Z,30.11
2022-08-05T10:28:13.192Z,29.14
2022-08-05T10:29:24.213Z,29.06
2022-08-05T10:32:49.649Z,29.52
2022-08-05T10:32:51.906Z,28.98
2022-08-05T10:33:35.206Z,28.03
2022-08-05T10:34:40.811Z,27.42
2022-08-05T10:35:44.076Z,28.41
2022-08-05T10:36:46.529Z,28.11
2022-08-05T10:37:49.300Z,27.09
2022-08-05T10:39:24.491Z,26.92
2022-08-05T10:40:45.019Z,26.92
2022-08-05T10:42:00.759Z,28.51
2022-08-05T10:43:12.611Z,28.33
2022-08-05T10:44:18.384Z,27.36
2022-08-05T10:45:39.854Z,27.41
2022-08-05T10:47:26.830Z,27.32
2022-08-05T10:48:52.674Z,28.01
2022-08-05T10:50:33.096Z,30.16
2022-08-05T10:52:02.659Z,29.85
2022-08-05T10:53:04.769Z,31.12
2022-08-05T10:54:28.183Z,30.12
2022-08-05T10:55:28.594Z,32.02
2022-08-05T10:56:45.426Z,31.57
2022-08-05T10:57:47.208Z,31.74
2022-08-05T10:58:52.941Z,31.38
2022-08-05T11:00:17.883Z,29.80
2022-08-05T11:01:55.683Z,29.34
2022-08-05T11:03:23.856Z,29.16
2022-08-05T11:04:27.898Z,29.79
2022-08-05T11:05:34.139Z,29.77
2022-08-05T11:06:56.915Z,30.85
2022-08-05T11:08:34.382Z,30.94
2022-08-05T11:09:51.502Z,29.92
2022-08-05T11:11:44.736Z,30.78
2022-08-05T11:12:55.953Z,30.48
2022-08-05T11:13:58.536Z,30.33
2022-08-05T11:15:20.001Z,29.51
2022-08-05T11:16:47.506Z,28.57
2022-08-05T11:17:58.917Z,29.79
2022-08-05T11:20:16.721Z,29.23
2022-08-05T11:20:51.028Z,31.14
2022-08-05T11:21:54.563Z,29.83
2022-08-05T11:23:05.843Z,29.61
2022-08-05T11:24:29.837Z,27.95
2022-08-05T11:26:04.452Z,27.26
2022-08-05T11:27:50.124Z,28.02
2022-08-05T11:28:54.525Z,27.56
2022-08-05T11:30:02.083Z,26.90
2022-08-05T11:31:06.090Z,27.64
2022-08-05T11:32:26.476Z,27.50
2022-08-05T11:33:34.753Z,29.43
2022-08-05T11:34:54.100Z,29.08
2022-08-05T11:36:07.697Z,28.00
2022-08-05T11:38:29.986Z,26.36
2022-08-05T11:38:45.693Z,26.15
2022-08-05T11:39:55.482Z,26.24
2022-08-05T11:41:35.040Z,25.29
2022-08-05T11:42:29.528Z,26.46
2022-08-05T11:44:00.875Z,26.75
2022-08-05T11:45:03.081Z,27.61
2022-08-05T11:46:15.259Z,26.58
2022-08-05T11:47:49.027Z,25.19
2022-08-05T11:48:44.874Z,26.78
2022-08-05T11:49:50.927Z,25.31
2022-08-05T11:50:53.721Z,26.25
2022-08-05T11:51:55.588Z,27.21
2022-08-05T11:53:06.432Z,26.96
2022-08-05T11:54:13.818Z,27.82
2022-08-05T11:55:15.752Z,27.41
2022-08-05T11:56:17.542Z,26.94
2022-08-05T11:57:26.097Z,27.78
2022-08-05T11:58:46.935Z,27.63
2022-08-05T11:59:55.354Z,27.90
2022-08-05T12:01:08.515Z,27.51
2022-08-05T12:02:30.652Z,27.23
2022-08-05T12:03:56.314Z,25.07
2022-08-05T12:04:59.852Z,24.87
2022-08-05T12:06:05.947Z,25.11
2022-08-05T12:07:16.259Z,26.09
2022-08-05T12:08:18.585Z,25.40
2022-08-05T12:09:52.873Z,25.74
2022-08-05T12:10:51.751Z,26.17
2022-08-05T12:11:54.640Z,27.18
2022-08-05T12:13:03.945Z,26.25
2022-08-05T12:14:17.931Z,26.92
2022-08-05T12:15:33.952Z,27.15
2022-08-05T12:16:45.116Z,26.84
2022-08-05T12:18:03.003Z,26.70
2022-08-05T12:19:08.495Z,26.21
2022-08-05T12:20:25.918Z,25.75
2022-08-05T12:21:38.986Z,25.05
2022-08-05T12:22:41.219Z,25.04
2022-08-05T12:24:07.173Z,26.02
2022-08-05T12:25:09.208Z,25.82
2022-08-05T12:26:16.352Z,26.10
2022-08-05T12:27:25.713Z,26.23
2022-08-05T12:28:38.153Z,26.64
2022-08-05T12:29:39.969Z,26.61
2022-08-05T12:30:45.956Z,26.26
2022-08-05T12:31:53.789Z,26.76
2022-08-05T12:32:58.622Z,27.49
2022-08-05T12:34:09.895Z,26.39
2022-08-05T12:35:24.517Z,26.95
2022-08-05T12:36:39.434Z,26.52
2022-08-05T12:37:42.849Z,25.34
2022-08-05T12:38:45.267Z,26.23
2022-08-05T12:39:51.048Z,26.04
2022-08-05T12:40:54.081Z,26.25
2022-08-05T12:41:59.785Z,25.48
2022-08-05T12:43:01.504Z,25.81
2022-08-05T12:44:06.566Z,26.39
2022-08-05T12:45:14.598Z,26.39
2022-08-05T12:46:29.037Z,25.27
2022-08-05T12:47:31.963Z,25.11
2022-08-05T12:48:40.042Z,25.61
2022-08-05T12:50:02.385Z,24.43
2022-08-05T12:52:09.868Z,25.29
2022-08-05T12:52:42.329Z,24.44
2022-08-05T12:53:55.615Z,24.70
2022-08-05T12:54:57.643Z,24.89
2022-08-05T12:56:00.763Z,24.05
2022-08-05T12:57:09.161Z,24.41
2022-08-05T12:58:49.251Z,24.42
2022-08-05T13:01:58.203Z,25.38
2022-08-05T13:02:00.259Z,24.68
2022-08-05T13:02:40.205Z,25.64
2022-08-05T13:03:43.353Z,25.17
2022-08-05T13:04:52.525Z,25.99
2022-08-05T13:05:56.345Z,26.06
2022-08-05T13:06:59.532Z,27.64
2022-08-05T13:08:04.690Z,28.86
2022-08-05T13:09:12.712Z,28.22
2022-08-05T13:10:20.085Z,28.30
2022-08-05T13:12:01.326Z,29.03
2022-08-05T13:12:58.207Z,29.05
2022-08-05T13:14:06.300Z,29.16
2022-08-05T13:15:16.551Z,29.76
2022-08-05T13:16:27.804Z,29.64
2022-08-05T13:17:31.869Z,30.14
2022-08-05T13:18:58.493Z,31.26
2022-08-05T13:20:24.041Z,31.11
2022-08-05T13:21:27.794Z,30.80
2022-08-05T13:22:31.322Z,30.83
2022-08-05T13:23:32.904Z,30.75
2022-08-05T13:24:51.056Z,31.54
2022-08-05T13:26:01.393Z,32.20
2022-08-05T13:27:03.170Z,32.22
2022-08-05T13:28:06.270Z,31.98
2022-08-05T13:29:08.333Z,32.30
2022-08-05T13:30:34.953Z,33.11
2022-08-05T13:32:03.846Z,31.51
2022-08-05T13:32:56.779Z,31.94
2022-08-05T13:34:21.107Z,31.64
2022-08-05T13:35:42.704Z,32.15
2022-08-05T13:36:46.641Z,32.45
2022-08-05T13:37:55.576Z,32.87
2022-08-05T13:38:58.014Z,31.77
2022-08-05T13:40:16.257Z,32.65
2022-08-05T13:41:23.824Z,33.53
2022-08-05T13:42:37.079Z,33.32
2022-08-05T13:43:45.476Z,33.69
2022-08-05T13:44:57.447Z,33.47
2022-08-05T13:46:00.622Z,33.50
2022-08-05T13:47:08.662Z,33.82
2022-08-05T13:48:56.695Z,34.49
2022-08-05T13:49:35.282Z,34.63
2022-08-05T13:50:37.200Z,34.71
2022-08-05T13:51:41.463Z,34.88
2022-08-05T13:52:43.576Z,33.99
2022-08-05T13:53:48.036Z,34.19
2022-08-05T13:54:53.427Z,33.39
2022-08-05T13:55:57.632Z,33.44
2022-08-05T13:57:03.432Z,35.47
2022-08-05T13:58:07.921Z,34.60
2022-08-05T13:59:19.793Z,34.57
2022-08-05T14:00:27.343Z,33.46
2022-08-05T14:01:44.177Z,34.56
2022-08-05T14:02:48.386Z,34.73
2022-08-05T14:04:10.060Z,35.13
2022-08-05T14:05:12.023Z,35.68
2022-08-05T14:06:25.660Z,35.92
2022-08-05T14:08:00.017Z,36.14
2022-08-05T14:08:51.048Z,34.83
2022-08-05T14:09:54.764Z,35.39
2022-08-05T14:11:03.293Z,36.02
2022-08-05T14:12:32.798Z,35.36
2022-08-05T14:13:34.653Z,35.67
2022-08-05T14:14:36.312Z,36.75
2022-08-05T14:16:04.985Z,36.99
2022-08-05T14:16:59.936Z,38.41
2022-08-05T14:18:02.579Z,40.06
2022-08-05T14:19:05.631Z,40.17
2022-08-05T14:20:08.391Z,40.10
2022-08-05T14:22:10.278Z,40.76
2022-08-05T14:22:34.315Z,41.92
2022-08-05T14:23:37.207Z,40.97
2022-08-05T14:24:40.152Z,41.25
2022-08-05T14:25:44.885Z,41.55
2022-08-05T14:27:01.954Z,41.39
2022-08-05T14:28:08.701Z,41.33
2022-08-05T14:29:24.527Z,41.35
2022-08-05T14:30:27.813Z,42.18
2022-08-05T14:32:02.274Z,42.57
2022-08-05T14:32:52.455Z,42.67
2022-08-05T14:33:59.895Z,44.19
2022-08-05T14:35:02.356Z,43.72
2022-08-05T14:36:04.933Z,43.81
2022-08-05T14:37:06.923Z,43.86
2022-08-05T14:38:32.315Z,45.01
2022-08-05T14:39:30.194Z,44.78
2022-08-05T14:40:51.845Z,45.67
2022-08-05T14:42:19.150Z,45.53
2022-08-05T14:43:15.394Z,45.52
2022-08-05T14:44:20.205Z,46.30
2022-08-05T14:45:22.681Z,45.36
2022-08-05T14:46:29.015Z,45.68
2022-08-05T14:48:03.501Z,45.30
2022-08-05T14:48:53.154Z,45.21
2022-08-05T14:50:00.313Z,45.25
2022-08-05T14:51:03.716Z,45.41
2022-08-05T14:52:05.616Z,44.38
2022-08-05T14:53:12.616Z,45.11
2022-08-05T14:54:27.548Z,45.06
2022-08-05T14:55:39.429Z,44.77
2022-08-05T14:56:44.120Z,43.88
2022-08-05T14:57:54.741Z,43.63
2022-08-05T14:58:57.974Z,43.99
2022-08-05T14:59:59.621Z,43.74
2022-08-05T15:01:01.701Z,44.61
2022-08-05T15:02:15.860Z,43.60
2022-08-05T15:03:17.971Z,44.21
2022-08-05T15:04:22.399Z,44.94
2022-08-05T15:05:29.901Z,45.11
2022-08-05T15:06:32.530Z,45.43
2022-08-05T15:08:11.574Z,46.66
2022-08-05T15:08:59.489Z,46.12
2022-08-05T15:10:09.582Z,46.29